sensor_id;sensor_type;location;lat;lon;timestamp;temperature;humidity
52459;DHT22;38372;52.902;6.024;2023-04-06T00:00:56;2.40;99.30
52459;DHT22;38372;52.902;6.024;2023-04-06T00:03:24;2.40;99.60
52459;DHT22;38372;52.902;6.024;2023-04-06T00:05:52;2.40;99.70
52459;DHT22;38372;52.902;6.024;2023-04-06T00:08:18;2.30;99.90
52459;DHT22;38372;52.902;6.024;2023-04-06T00:10:46;2.30;99.90
52459;DHT22;38372;52.902;6.024;2023-04-06T00:13:13;2.20;99.90
52459;DHT22;38372;52.902;6.024;2023-04-06T00:15:41;2.20;99.90
52459;DHT22;38372;52.902;6.024;2023-04-06T00:18:09;2.10;99.90
52459;DHT22;38372;52.902;6.024;2023-04-06T00:20:37;2.10;99.90
52459;DHT22;38372;52.902;6.024;2023-04-06T00:23:04;2.10;99.90
52459;DHT22;38372;52.902;6.024;2023-04-06T00:25:32;2.10;99.90
52459;DHT22;38372;52.902;6.024;2023-04-06T00:28:00;2.00;99.90
52459;DHT22;38372;52.902;6.024;2023-04-06T00:30:28;2.00;99.90
52459;DHT22;38372;52.902;6.024;2023-04-06T00:32:54;2.00;99.90
52459;DHT22;38372;52.902;6.024;2023-04-06T00:35:22;2.00;99.90
52459;DHT22;38372;52.902;6.024;2023-04-06T00:37:47;2.00;99.90
52459;DHT22;38372;52.902;6.024;2023-04-06T00:40:15;1.90;99.90
52459;DHT22;38372;52.902;6.024;2023-04-06T00:42:43;1.90;99.90
52459;DHT22;38372;52.902;6.024;2023-04-06T00:45:11;1.90;99.90
52459;DHT22;38372;52.902;6.024;2023-04-06T00:47:39;1.90;99.90
52459;DHT22;38372;52.902;6.024;2023-04-06T00:50:07;1.90;99.90
52459;DHT22;38372;52.902;6.024;2023-04-06T00:52:34;1.90;99.90
52459;DHT22;38372;52.902;6.024;2023-04-06T00:55:03;1.90;99.90
52459;DHT22;38372;52.902;6.024;2023-04-06T00:57:32;1.90;99.90
52459;DHT22;38372;52.902;6.024;2023-04-06T01:00:00;1.90;99.90
52459;DHT22;38372;52.902;6.024;2023-04-06T01:02:28;1.90;99.90
52459;DHT22;38372;52.902;6.024;2023-04-06T01:04:55;1.90;99.90
52459;DHT22;38372;52.902;6.024;2023-04-06T01:07:22;1.90;99.90
52459;DHT22;38372;52.902;6.024;2023-04-06T01:09:52;1.90;99.90
52459;DHT22;38372;52.902;6.024;2023-04-06T01:12:18;1.90;99.90
52459;DHT22;38372;52.902;6.024;2023-04-06T01:14:46;1.90;99.90
52459;DHT22;38372;52.902;6.024;2023-04-06T01:17:14;1.90;99.90
52459;DHT22;38372;52.902;6.024;2023-04-06T01:19:42;1.90;99.90
52459;DHT22;38372;52.902;6.024;2023-04-06T01:22:15;1.90;99.90
52459;DHT22;38372;52.902;6.024;2023-04-06T01:24:44;1.90;99.90
52459;DHT22;38372;52.902;6.024;2023-04-06T01:27:12;1.90;99.90
52459;DHT22;38372;52.902;6.024;2023-04-06T01:29:40;1.90;99.90
52459;DHT22;38372;52.902;6.024;2023-04-06T01:32:08;1.80;99.90
52459;DHT22;38372;52.902;6.024;2023-04-06T01:34:36;1.80;99.90
52459;DHT22;38372;52.902;6.024;2023-04-06T01:37:04;1.90;99.90
52459;DHT22;38372;52.902;6.024;2023-04-06T01:39:31;1.80;99.90
52459;DHT22;38372;52.902;6.024;2023-04-06T01:41:59;1.80;99.90
52459;DHT22;38372;52.902;6.024;2023-04-06T01:44:27;1.80;99.90
52459;DHT22;38372;52.902;6.024;2023-04-06T01:46:55;1.70;99.90
52459;DHT22;38372;52.902;6.024;2023-04-06T01:49:23;1.70;99.90
52459;DHT22;38372;52.902;6.024;2023-04-06T01:51:51;1.60;99.90
52459;DHT22;38372;52.902;6.024;2023-04-06T01:54:19;1.60;99.90
52459;DHT22;38372;52.902;6.024;2023-04-06T01:56:47;1.60;99.90
52459;DHT22;38372;52.902;6.024;2023-04-06T01:59:15;1.50;99.90
52459;DHT22;38372;52.902;6.024;2023-04-06T02:01:43;1.50;99.90
52459;DHT22;38372;52.902;6.024;2023-04-06T02:04:11;1.40;99.90
52459;DHT22;38372;52.902;6.024;2023-04-06T02:06:39;1.30;99.90
52459;DHT22;38372;52.902;6.024;2023-04-06T02:09:07;1.20;99.90
52459;DHT22;38372;52.902;6.024;2023-04-06T02:11:35;1.20;99.90
52459;DHT22;38372;52.902;6.024;2023-04-06T02:14:03;1.20;99.90
52459;DHT22;38372;52.902;6.024;2023-04-06T02:16:31;1.30;99.90
52459;DHT22;38372;52.902;6.024;2023-04-06T02:18:58;1.30;99.90
52459;DHT22;38372;52.902;6.024;2023-04-06T02:21:26;1.20;99.90
52459;DHT22;38372;52.902;6.024;2023-04-06T02:23:54;1.30;99.90
52459;DHT22;38372;52.902;6.024;2023-04-06T02:26:22;1.30;99.90
52459;DHT22;38372;52.902;6.024;2023-04-06T02:28:49;1.30;99.90
52459;DHT22;38372;52.902;6.024;2023-04-06T02:31:15;1.30;99.90
52459;DHT22;38372;52.902;6.024;2023-04-06T02:33:42;1.30;99.90
52459;DHT22;38372;52.902;6.024;2023-04-06T02:36:10;1.30;99.90
52459;DHT22;38372;52.902;6.024;2023-04-06T02:38:38;1.20;99.90
52459;DHT22;38372;52.902;6.024;2023-04-06T02:41:06;1.20;99.90
52459;DHT22;38372;52.902;6.024;2023-04-06T02:43:32;1.10;99.90
52459;DHT22;38372;52.902;6.024;2023-04-06T02:46:01;1.20;99.90
52459;DHT22;38372;52.902;6.024;2023-04-06T02:48:29;1.20;99.90
52459;DHT22;38372;52.902;6.024;2023-04-06T02:50:58;1.20;99.90
52459;DHT22;38372;52.902;6.024;2023-04-06T02:53:25;1.20;99.90
52459;DHT22;38372;52.902;6.024;2023-04-06T02:55:53;1.30;99.90
52459;DHT22;38372;52.902;6.024;2023-04-06T02:58:21;1.20;99.90
52459;DHT22;38372;52.902;6.024;2023-04-06T03:00:49;1.20;99.90
52459;DHT22;38372;52.902;6.024;2023-04-06T03:03:17;1.10;99.90
52459;DHT22;38372;52.902;6.024;2023-04-06T03:05:45;1.00;99.90
52459;DHT22;38372;52.902;6.024;2023-04-06T03:08:12;0.90;99.90
52459;DHT22;38372;52.902;6.024;2023-04-06T03:10:40;0.80;99.90
52459;DHT22;38372;52.902;6.024;2023-04-06T03:13:08;0.70;99.90
52459;DHT22;38372;52.902;6.024;2023-04-06T03:15:36;0.60;99.90
52459;DHT22;38372;52.902;6.024;2023-04-06T03:18:03;0.70;99.90
52459;DHT22;38372;52.902;6.024;2023-04-06T03:20:31;0.60;99.90
52459;DHT22;38372;52.902;6.024;2023-04-06T03:23:00;0.70;99.90
52459;DHT22;38372;52.902;6.024;2023-04-06T03:25:27;0.60;99.90
52459;DHT22;38372;52.902;6.024;2023-04-06T03:27:56;0.70;99.90
52459;DHT22;38372;52.902;6.024;2023-04-06T03:30:24;0.70;99.90
52459;DHT22;38372;52.902;6.024;2023-04-06T03:32:52;0.60;99.90
52459;DHT22;38372;52.902;6.024;2023-04-06T03:35:18;0.60;99.90
52459;DHT22;38372;52.902;6.024;2023-04-06T03:37:46;0.50;99.90
52459;DHT22;38372;52.902;6.024;2023-04-06T03:40:14;0.50;99.90
52459;DHT22;38372;52.902;6.024;2023-04-06T03:42:41;0.40;99.90
52459;DHT22;38372;52.902;6.024;2023-04-06T03:45:09;0.40;99.90
52459;DHT22;38372;52.902;6.024;2023-04-06T03:47:38;0.40;99.90
52459;DHT22;38372;52.902;6.024;2023-04-06T03:50:06;0.40;99.90
52459;DHT22;38372;52.902;6.024;2023-04-06T03:52:35;0.50;99.90
52459;DHT22;38372;52.902;6.024;2023-04-06T03:55:03;0.50;99.90
52459;DHT22;38372;52.902;6.024;2023-04-06T03:57:30;0.50;99.90
52459;DHT22;38372;52.902;6.024;2023-04-06T03:59:58;0.50;99.90
52459;DHT22;38372;52.902;6.024;2023-04-06T04:02:25;0.60;99.90
52459;DHT22;38372;52.902;6.024;2023-04-06T04:04:51;0.60;99.90
52459;DHT22;38372;52.902;6.024;2023-04-06T04:07:19;0.70;99.90
52459;DHT22;38372;52.902;6.024;2023-04-06T04:09:46;0.70;99.90
52459;DHT22;38372;52.902;6.024;2023-04-06T04:12:14;0.70;99.90
52459;DHT22;38372;52.902;6.024;2023-04-06T04:14:42;0.70;99.90
52459;DHT22;38372;52.902;6.024;2023-04-06T04:17:10;0.70;99.90
52459;DHT22;38372;52.902;6.024;2023-04-06T04:19:36;0.70;99.90
52459;DHT22;38372;52.902;6.024;2023-04-06T04:22:04;0.70;99.90
52459;DHT22;38372;52.902;6.024;2023-04-06T04:24:32;0.70;99.90
52459;DHT22;38372;52.902;6.024;2023-04-06T04:27:00;0.70;99.90
52459;DHT22;38372;52.902;6.024;2023-04-06T04:29:30;0.60;99.90
52459;DHT22;38372;52.902;6.024;2023-04-06T04:31:58;0.50;99.90
52459;DHT22;38372;52.902;6.024;2023-04-06T04:34:26;0.40;99.90
52459;DHT22;38372;52.902;6.024;2023-04-06T04:36:54;0.30;99.90
52459;DHT22;38372;52.902;6.024;2023-04-06T04:39:22;0.30;99.90
52459;DHT22;38372;52.902;6.024;2023-04-06T04:41:50;0.30;99.90
52459;DHT22;38372;52.902;6.024;2023-04-06T04:44:17;0.30;99.90
52459;DHT22;38372;52.902;6.024;2023-04-06T04:46:43;0.30;99.90
52459;DHT22;38372;52.902;6.024;2023-04-06T04:49:11;0.40;99.90
52459;DHT22;38372;52.902;6.024;2023-04-06T04:51:39;0.40;99.90
52459;DHT22;38372;52.902;6.024;2023-04-06T04:54:07;0.40;99.90
52459;DHT22;38372;52.902;6.024;2023-04-06T04:56:33;0.40;99.90
52459;DHT22;38372;52.902;6.024;2023-04-06T04:59:01;0.40;99.90
52459;DHT22;38372;52.902;6.024;2023-04-06T05:01:29;0.50;99.90
52459;DHT22;38372;52.902;6.024;2023-04-06T05:03:57;0.50;99.90
52459;DHT22;38372;52.902;6.024;2023-04-06T05:06:25;0.50;99.90
52459;DHT22;38372;52.902;6.024;2023-04-06T05:08:53;0.50;99.90
52459;DHT22;38372;52.902;6.024;2023-04-06T05:11:22;0.50;99.90
52459;DHT22;38372;52.902;6.024;2023-04-06T05:13:49;0.50;99.90
52459;DHT22;38372;52.902;6.024;2023-04-06T05:16:18;0.60;99.90
52459;DHT22;38372;52.902;6.024;2023-04-06T05:18:47;0.60;99.90
52459;DHT22;38372;52.902;6.024;2023-04-06T05:21:15;0.60;99.90
52459;DHT22;38372;52.902;6.024;2023-04-06T05:23:43;0.60;99.90
52459;DHT22;38372;52.902;6.024;2023-04-06T05:26:11;0.60;99.90
52459;DHT22;38372;52.902;6.024;2023-04-06T05:28:39;0.60;99.90
52459;DHT22;38372;52.902;6.024;2023-04-06T05:31:07;0.60;99.90
52459;DHT22;38372;52.902;6.024;2023-04-06T05:33:34;0.70;99.90
52459;DHT22;38372;52.902;6.024;2023-04-06T05:36:02;0.70;99.90
52459;DHT22;38372;52.902;6.024;2023-04-06T05:38:30;0.80;99.90
52459;DHT22;38372;52.902;6.024;2023-04-06T05:40:58;0.90;99.90
52459;DHT22;38372;52.902;6.024;2023-04-06T05:43:26;0.90;99.90
52459;DHT22;38372;52.902;6.024;2023-04-06T05:45:54;1.00;99.90
52459;DHT22;38372;52.902;6.024;2023-04-06T05:48:22;1.00;99.90
52459;DHT22;38372;52.902;6.024;2023-04-06T05:50:50;1.10;99.90
52459;DHT22;38372;52.902;6.024;2023-04-06T05:53:18;1.10;99.90
52459;DHT22;38372;52.902;6.024;2023-04-06T05:55:46;1.20;99.90
52459;DHT22;38372;52.902;6.024;2023-04-06T05:58:14;1.30;99.90
52459;DHT22;38372;52.902;6.024;2023-04-06T06:00:42;1.40;99.90
52459;DHT22;38372;52.902;6.024;2023-04-06T06:03:11;1.40;99.90
52459;DHT22;38372;52.902;6.024;2023-04-06T06:05:40;1.50;99.90
52459;DHT22;38372;52.902;6.024;2023-04-06T06:08:07;1.60;99.90
52459;DHT22;38372;52.902;6.024;2023-04-06T06:10:35;1.70;99.90
52459;DHT22;38372;52.902;6.024;2023-04-06T06:13:03;1.80;99.90
52459;DHT22;38372;52.902;6.024;2023-04-06T06:15:31;2.00;99.90
52459;DHT22;38372;52.902;6.024;2023-04-06T06:17:58;2.10;99.90
52459;DHT22;38372;52.902;6.024;2023-04-06T06:20:24;2.30;99.90
52459;DHT22;38372;52.902;6.024;2023-04-06T06:22:52;2.60;99.90
52459;DHT22;38372;52.902;6.024;2023-04-06T06:25:19;2.90;99.90
52459;DHT22;38372;52.902;6.024;2023-04-06T06:27:47;3.10;99.90
52459;DHT22;38372;52.902;6.024;2023-04-06T06:30:15;3.40;99.90
52459;DHT22;38372;52.902;6.024;2023-04-06T06:32:43;3.70;99.90
52459;DHT22;38372;52.902;6.024;2023-04-06T06:35:11;4.00;99.90
52459;DHT22;38372;52.902;6.024;2023-04-06T06:37:39;4.20;99.90
52459;DHT22;38372;52.902;6.024;2023-04-06T06:40:09;4.50;99.90
52459;DHT22;38372;52.902;6.024;2023-04-06T06:42:35;4.70;99.90
52459;DHT22;38372;52.902;6.024;2023-04-06T06:45:04;4.90;99.90
52459;DHT22;38372;52.902;6.024;2023-04-06T06:47:30;4.90;99.90
52459;DHT22;38372;52.902;6.024;2023-04-06T06:49:58;4.90;99.90
52459;DHT22;38372;52.902;6.024;2023-04-06T06:52:26;5.00;99.90
52459;DHT22;38372;52.902;6.024;2023-04-06T06:54:54;5.30;99.90
52459;DHT22;38372;52.902;6.024;2023-04-06T06:57:21;5.50;99.90
52459;DHT22;38372;52.902;6.024;2023-04-06T06:59:47;5.80;99.90
52459;DHT22;38372;52.902;6.024;2023-04-06T07:02:14;6.00;99.90
52459;DHT22;38372;52.902;6.024;2023-04-06T07:04:42;6.20;99.90
52459;DHT22;38372;52.902;6.024;2023-04-06T07:07:10;6.40;99.90
52459;DHT22;38372;52.902;6.024;2023-04-06T07:09:38;6.50;99.90
52459;DHT22;38372;52.902;6.024;2023-04-06T07:12:06;6.60;99.90
52459;DHT22;38372;52.902;6.024;2023-04-06T07:14:34;6.60;99.90
52459;DHT22;38372;52.902;6.024;2023-04-06T07:17:02;6.70;99.90
52459;DHT22;38372;52.902;6.024;2023-04-06T07:19:30;6.80;99.90
52459;DHT22;38372;52.902;6.024;2023-04-06T07:21:56;6.80;99.90
52459;DHT22;38372;52.902;6.024;2023-04-06T07:24:24;6.80;99.90
52459;DHT22;38372;52.902;6.024;2023-04-06T07:26:52;6.90;99.90
52459;DHT22;38372;52.902;6.024;2023-04-06T07:29:20;7.00;99.90
52459;DHT22;38372;52.902;6.024;2023-04-06T07:31:48;7.10;99.90
52459;DHT22;38372;52.902;6.024;2023-04-06T07:34:15;7.10;99.90
52459;DHT22;38372;52.902;6.024;2023-04-06T07:36:43;7.10;99.90
52459;DHT22;38372;52.902;6.024;2023-04-06T07:39:11;7.20;99.90
52459;DHT22;38372;52.902;6.024;2023-04-06T07:41:39;7.20;99.90
52459;DHT22;38372;52.902;6.024;2023-04-06T07:44:06;7.40;99.90
52459;DHT22;38372;52.902;6.024;2023-04-06T07:46:33;7.40;99.90
52459;DHT22;38372;52.902;6.024;2023-04-06T07:49:01;7.60;99.90
52459;DHT22;38372;52.902;6.024;2023-04-06T07:51:29;7.70;99.90
52459;DHT22;38372;52.902;6.024;2023-04-06T07:53:56;8.10;99.90
52459;DHT22;38372;52.902;6.024;2023-04-06T07:56:24;8.40;99.90
52459;DHT22;38372;52.902;6.024;2023-04-06T07:58:52;8.70;99.90
52459;DHT22;38372;52.902;6.024;2023-04-06T08:01:21;9.00;99.90
52459;DHT22;38372;52.902;6.024;2023-04-06T08:03:46;9.30;99.90
52459;DHT22;38372;52.902;6.024;2023-04-06T08:06:12;9.60;99.90
52459;DHT22;38372;52.902;6.024;2023-04-06T08:08:38;9.80;99.90
52459;DHT22;38372;52.902;6.024;2023-04-06T08:11:04;10.20;99.90
52459;DHT22;38372;52.902;6.024;2023-04-06T08:13:29;10.50;99.90
52459;DHT22;38372;52.902;6.024;2023-04-06T08:15:59;10.70;99.90
52459;DHT22;38372;52.902;6.024;2023-04-06T08:18:27;10.70;99.00
52459;DHT22;38372;52.902;6.024;2023-04-06T08:20:55;10.50;99.00
52459;DHT22;38372;52.902;6.024;2023-04-06T08:23:22;10.40;98.40
52459;DHT22;38372;52.902;6.024;2023-04-06T08:25:50;10.30;99.40
52459;DHT22;38372;52.902;6.024;2023-04-06T08:28:18;10.30;99.10
52459;DHT22;38372;52.902;6.024;2023-04-06T08:30:44;10.30;98.60
52459;DHT22;38372;52.902;6.024;2023-04-06T08:33:10;10.40;98.60
52459;DHT22;38372;52.902;6.024;2023-04-06T08:35:38;10.60;98.80
52459;DHT22;38372;52.902;6.024;2023-04-06T08:38:06;10.90;99.00
52459;DHT22;38372;52.902;6.024;2023-04-06T08:40:38;11.10;97.90
52459;DHT22;38372;52.902;6.024;2023-04-06T08:43:06;11.00;96.80
52459;DHT22;38372;52.902;6.024;2023-04-06T08:45:34;11.10;97.30
52459;DHT22;38372;52.902;6.024;2023-04-06T08:48:02;11.20;97.50
52459;DHT22;38372;52.902;6.024;2023-04-06T08:50:30;11.20;96.70
52459;DHT22;38372;52.902;6.024;2023-04-06T08:52:58;11.10;97.00
52459;DHT22;38372;52.902;6.024;2023-04-06T08:55:27;11.10;96.30
52459;DHT22;38372;52.902;6.024;2023-04-06T08:57:55;11.10;96.50
52459;DHT22;38372;52.902;6.024;2023-04-06T09:00:24;11.20;96.00
52459;DHT22;38372;52.902;6.024;2023-04-06T09:02:53;11.40;96.70
52459;DHT22;38372;52.902;6.024;2023-04-06T09:05:22;11.50;96.10
52459;DHT22;38372;52.902;6.024;2023-04-06T09:07:51;11.50;95.10
52459;DHT22;38372;52.902;6.024;2023-04-06T09:10:18;11.50;95.30
52459;DHT22;38372;52.902;6.024;2023-04-06T09:12:46;11.80;95.20
52459;DHT22;38372;52.902;6.024;2023-04-06T09:15:21;11.90;95.00
52459;DHT22;38372;52.902;6.024;2023-04-06T09:17:49;12.00;95.20
52459;DHT22;38372;52.902;6.024;2023-04-06T09:20:23;12.30;94.20
52459;DHT22;38372;52.902;6.024;2023-04-06T09:22:51;12.40;93.60
52459;DHT22;38372;52.902;6.024;2023-04-06T09:25:20;12.30;93.40
52459;DHT22;38372;52.902;6.024;2023-04-06T09:28:02;12.20;93.80
52459;DHT22;38372;52.902;6.024;2023-04-06T09:30:29;12.40;94.00
52459;DHT22;38372;52.902;6.024;2023-04-06T09:32:57;12.50;94.10
52459;DHT22;38372;52.902;6.024;2023-04-06T09:35:26;12.50;93.80
52459;DHT22;38372;52.902;6.024;2023-04-06T09:37:56;12.30;92.20
52459;DHT22;38372;52.902;6.024;2023-04-06T09:40:22;12.10;92.50
52459;DHT22;38372;52.902;6.024;2023-04-06T09:42:50;12.00;92.50
52459;DHT22;38372;52.902;6.024;2023-04-06T09:45:19;11.70;92.10
52459;DHT22;38372;52.902;6.024;2023-04-06T09:47:47;11.60;92.20
52459;DHT22;38372;52.902;6.024;2023-04-06T09:50:15;11.40;92.30
52459;DHT22;38372;52.902;6.024;2023-04-06T09:52:48;11.30;92.80
52459;DHT22;38372;52.902;6.024;2023-04-06T09:55:36;11.30;93.10
52459;DHT22;38372;52.902;6.024;2023-04-06T09:58:07;11.30;93.70
52459;DHT22;38372;52.902;6.024;2023-04-06T10:00:50;11.30;93.60
52459;DHT22;38372;52.902;6.024;2023-04-06T10:03:47;11.30;93.60
52459;DHT22;38372;52.902;6.024;2023-04-06T10:06:15;11.40;92.90
52459;DHT22;38372;52.902;6.024;2023-04-06T10:08:45;11.30;93.20
52459;DHT22;38372;52.902;6.024;2023-04-06T10:11:15;11.20;93.60
52459;DHT22;38372;52.902;6.024;2023-04-06T10:13:44;11.20;93.70
52459;DHT22;38372;52.902;6.024;2023-04-06T10:16:13;11.30;93.80
52459;DHT22;38372;52.902;6.024;2023-04-06T10:18:45;11.30;93.90
52459;DHT22;38372;52.902;6.024;2023-04-06T10:21:17;11.40;94.10
52459;DHT22;38372;52.902;6.024;2023-04-06T10:23:51;11.50;94.40
52459;DHT22;38372;52.902;6.024;2023-04-06T10:26:22;11.60;93.90
52459;DHT22;38372;52.902;6.024;2023-04-06T10:28:49;11.70;93.10
52459;DHT22;38372;52.902;6.024;2023-04-06T10:31:27;11.70;93.50
52459;DHT22;38372;52.902;6.024;2023-04-06T10:33:55;12.00;93.30
52459;DHT22;38372;52.902;6.024;2023-04-06T10:36:24;12.20;92.90
52459;DHT22;38372;52.902;6.024;2023-04-06T10:38:59;12.30;93.00
52459;DHT22;38372;52.902;6.024;2023-04-06T10:44:01;12.60;92.70
52459;DHT22;38372;52.902;6.024;2023-04-06T10:46:31;12.50;91.40
52459;DHT22;38372;52.902;6.024;2023-04-06T10:49:11;12.40;91.50
52459;DHT22;38372;52.902;6.024;2023-04-06T10:51:39;12.20;91.80
52459;DHT22;38372;52.902;6.024;2023-04-06T10:54:09;12.10;92.00
52459;DHT22;38372;52.902;6.024;2023-04-06T10:56:38;12.00;92.30
52459;DHT22;38372;52.902;6.024;2023-04-06T10:59:06;12.00;91.40
52459;DHT22;38372;52.902;6.024;2023-04-06T11:01:34;11.90;91.70
52459;DHT22;38372;52.902;6.024;2023-04-06T11:04:02;11.90;91.80
52459;DHT22;38372;52.902;6.024;2023-04-06T11:06:29;11.90;91.90
52459;DHT22;38372;52.902;6.024;2023-04-06T11:08:58;11.90;91.50
52459;DHT22;38372;52.902;6.024;2023-04-06T11:11:27;11.80;91.70
52459;DHT22;38372;52.902;6.024;2023-04-06T11:16:24;11.70;92.10
52459;DHT22;38372;52.902;6.024;2023-04-06T11:18:53;11.70;92.30
52459;DHT22;38372;52.902;6.024;2023-04-06T11:26:45;11.60;93.30
52459;DHT22;38372;52.902;6.024;2023-04-06T11:29:15;11.60;93.50
52459;DHT22;38372;52.902;6.024;2023-04-06T11:31:48;11.70;93.80
52459;DHT22;38372;52.902;6.024;2023-04-06T11:34:22;11.80;93.20
52459;DHT22;38372;52.902;6.024;2023-04-06T11:37:01;11.80;93.40
52459;DHT22;38372;52.902;6.024;2023-04-06T11:39:30;11.90;93.10
52459;DHT22;38372;52.902;6.024;2023-04-06T11:41:59;11.90;93.60
52459;DHT22;38372;52.902;6.024;2023-04-06T11:44:32;11.90;93.70
52459;DHT22;38372;52.902;6.024;2023-04-06T11:47:02;11.90;93.70
52459;DHT22;38372;52.902;6.024;2023-04-06T11:49:31;12.00;93.70
52459;DHT22;38372;52.902;6.024;2023-04-06T11:52:01;12.10;93.70
52459;DHT22;38372;52.902;6.024;2023-04-06T11:54:36;12.10;93.30
52459;DHT22;38372;52.902;6.024;2023-04-06T11:57:05;12.10;92.80
52459;DHT22;38372;52.902;6.024;2023-04-06T11:59:33;12.10;92.90
52459;DHT22;38372;52.902;6.024;2023-04-06T12:02:02;12.10;93.30
52459;DHT22;38372;52.902;6.024;2023-04-06T12:04:31;12.10;92.80
52459;DHT22;38372;52.902;6.024;2023-04-06T12:06:57;12.20;93.00
52459;DHT22;38372;52.902;6.024;2023-04-06T12:09:23;12.20;92.80
52459;DHT22;38372;52.902;6.024;2023-04-06T12:11:50;12.20;93.20
52459;DHT22;38372;52.902;6.024;2023-04-06T12:14:18;12.20;93.70
52459;DHT22;38372;52.902;6.024;2023-04-06T12:16:45;12.20;94.30
52459;DHT22;38372;52.902;6.024;2023-04-06T12:19:13;12.30;94.30
52459;DHT22;38372;52.902;6.024;2023-04-06T12:21:39;12.30;94.00
52459;DHT22;38372;52.902;6.024;2023-04-06T12:24:07;12.20;94.00
52459;DHT22;38372;52.902;6.024;2023-04-06T12:26:36;12.10;95.00
52459;DHT22;38372;52.902;6.024;2023-04-06T12:29:04;12.00;95.00
52459;DHT22;38372;52.902;6.024;2023-04-06T12:31:35;11.90;96.10
52459;DHT22;38372;52.902;6.024;2023-04-06T12:34:03;11.80;96.70
52459;DHT22;38372;52.902;6.024;2023-04-06T12:36:32;11.80;97.10
52459;DHT22;38372;52.902;6.024;2023-04-06T12:39:01;11.80;97.30
52459;DHT22;38372;52.902;6.024;2023-04-06T12:41:29;11.80;97.80
52459;DHT22;38372;52.902;6.024;2023-04-06T12:43:58;11.90;97.70
52459;DHT22;38372;52.902;6.024;2023-04-06T12:46:27;11.90;99.50
52459;DHT22;38372;52.902;6.024;2023-04-06T12:48:55;11.90;99.90
52459;DHT22;38372;52.902;6.024;2023-04-06T12:51:23;11.80;99.90
52459;DHT22;38372;52.902;6.024;2023-04-06T12:53:51;11.70;99.90
52459;DHT22;38372;52.902;6.024;2023-04-06T12:56:19;11.60;99.90
52459;DHT22;38372;52.902;6.024;2023-04-06T12:58:47;11.60;99.90
52459;DHT22;38372;52.902;6.024;2023-04-06T13:01:14;11.60;99.90
52459;DHT22;38372;52.902;6.024;2023-04-06T13:03:43;11.70;99.90
52459;DHT22;38372;52.902;6.024;2023-04-06T13:06:12;11.60;99.90
52459;DHT22;38372;52.902;6.024;2023-04-06T13:08:40;11.40;99.90
52459;DHT22;38372;52.902;6.024;2023-04-06T13:11:08;11.30;99.90
52459;DHT22;38372;52.902;6.024;2023-04-06T13:13:37;11.10;99.90
52459;DHT22;38372;52.902;6.024;2023-04-06T13:16:08;10.90;99.90
52459;DHT22;38372;52.902;6.024;2023-04-06T13:18:35;10.70;99.90
52459;DHT22;38372;52.902;6.024;2023-04-06T13:21:04;10.50;99.90
52459;DHT22;38372;52.902;6.024;2023-04-06T13:23:32;10.40;99.90
52459;DHT22;38372;52.902;6.024;2023-04-06T13:26:05;10.30;99.90
52459;DHT22;38372;52.902;6.024;2023-04-06T13:28:34;10.10;99.90
52459;DHT22;38372;52.902;6.024;2023-04-06T13:31:03;10.00;99.90
52459;DHT22;38372;52.902;6.024;2023-04-06T13:33:31;10.00;99.90
52459;DHT22;38372;52.902;6.024;2023-04-06T13:35:59;9.80;99.90
52459;DHT22;38372;52.902;6.024;2023-04-06T13:38:28;9.80;99.90
52459;DHT22;38372;52.902;6.024;2023-04-06T13:40:56;9.70;99.90
52459;DHT22;38372;52.902;6.024;2023-04-06T13:43:24;9.60;99.90
52459;DHT22;38372;52.902;6.024;2023-04-06T13:45:57;9.50;99.90
52459;DHT22;38372;52.902;6.024;2023-04-06T13:48:25;9.40;99.90
52459;DHT22;38372;52.902;6.024;2023-04-06T13:50:53;9.40;99.90
52459;DHT22;38372;52.902;6.024;2023-04-06T13:53:21;9.30;99.90
52459;DHT22;38372;52.902;6.024;2023-04-06T13:55:53;9.20;99.90
52459;DHT22;38372;52.902;6.024;2023-04-06T13:58:19;9.20;99.90
52459;DHT22;38372;52.902;6.024;2023-04-06T14:00:45;9.20;99.90
52459;DHT22;38372;52.902;6.024;2023-04-06T14:03:13;9.10;99.90
52459;DHT22;38372;52.902;6.024;2023-04-06T14:05:41;9.10;99.90
52459;DHT22;38372;52.902;6.024;2023-04-06T14:08:09;9.00;99.90
52459;DHT22;38372;52.902;6.024;2023-04-06T14:10:38;9.00;99.90
52459;DHT22;38372;52.902;6.024;2023-04-06T14:13:07;9.00;99.90
52459;DHT22;38372;52.902;6.024;2023-04-06T14:15:33;8.90;99.90
52459;DHT22;38372;52.902;6.024;2023-04-06T14:18:01;8.90;99.90
52459;DHT22;38372;52.902;6.024;2023-04-06T14:20:33;8.80;99.90
52459;DHT22;38372;52.902;6.024;2023-04-06T14:23:02;8.70;99.90
52459;DHT22;38372;52.902;6.024;2023-04-06T14:25:31;8.70;99.90
52459;DHT22;38372;52.902;6.024;2023-04-06T14:27:59;8.60;99.90
52459;DHT22;38372;52.902;6.024;2023-04-06T14:30:30;8.50;99.90
52459;DHT22;38372;52.902;6.024;2023-04-06T14:32:58;8.40;99.90
52459;DHT22;38372;52.902;6.024;2023-04-06T14:35:26;8.30;99.90
52459;DHT22;38372;52.902;6.024;2023-04-06T14:37:53;8.20;99.90
52459;DHT22;38372;52.902;6.024;2023-04-06T14:40:22;8.20;99.90
52459;DHT22;38372;52.902;6.024;2023-04-06T14:42:49;8.20;99.90
52459;DHT22;38372;52.902;6.024;2023-04-06T14:45:20;8.20;99.90
52459;DHT22;38372;52.902;6.024;2023-04-06T14:47:48;8.20;99.90
52459;DHT22;38372;52.902;6.024;2023-04-06T14:50:15;8.20;99.90
52459;DHT22;38372;52.902;6.024;2023-04-06T14:52:43;8.20;99.90
52459;DHT22;38372;52.902;6.024;2023-04-06T14:55:11;8.10;99.90
52459;DHT22;38372;52.902;6.024;2023-04-06T14:57:39;8.20;99.90
52459;DHT22;38372;52.902;6.024;2023-04-06T15:00:06;8.20;99.90
52459;DHT22;38372;52.902;6.024;2023-04-06T15:02:35;8.10;99.90
52459;DHT22;38372;52.902;6.024;2023-04-06T15:05:03;8.20;99.90
52459;DHT22;38372;52.902;6.024;2023-04-06T15:07:31;8.20;99.90
52459;DHT22;38372;52.902;6.024;2023-04-06T15:09:59;8.20;99.90
52459;DHT22;38372;52.902;6.024;2023-04-06T15:12:26;8.20;99.90
52459;DHT22;38372;52.902;6.024;2023-04-06T15:14:54;8.10;99.90
52459;DHT22;38372;52.902;6.024;2023-04-06T15:17:22;8.10;99.90
52459;DHT22;38372;52.902;6.024;2023-04-06T15:19:50;8.10;99.90
52459;DHT22;38372;52.902;6.024;2023-04-06T15:22:18;8.10;99.90
52459;DHT22;38372;52.902;6.024;2023-04-06T15:24:47;8.00;99.90
52459;DHT22;38372;52.902;6.024;2023-04-06T15:27:15;8.00;99.90
52459;DHT22;38372;52.902;6.024;2023-04-06T15:29:43;8.00;99.90
52459;DHT22;38372;52.902;6.024;2023-04-06T15:32:10;8.00;99.90
52459;DHT22;38372;52.902;6.024;2023-04-06T15:34:38;8.00;99.90
52459;DHT22;38372;52.902;6.024;2023-04-06T15:37:06;7.90;99.90
52459;DHT22;38372;52.902;6.024;2023-04-06T15:39:34;7.90;99.90
52459;DHT22;38372;52.902;6.024;2023-04-06T15:42:02;7.90;99.90
52459;DHT22;38372;52.902;6.024;2023-04-06T15:44:28;7.80;99.90
52459;DHT22;38372;52.902;6.024;2023-04-06T15:46:54;7.80;99.90
52459;DHT22;38372;52.902;6.024;2023-04-06T15:49:22;7.70;99.90
52459;DHT22;38372;52.902;6.024;2023-04-06T15:51:49;7.60;99.90
52459;DHT22;38372;52.902;6.024;2023-04-06T15:54:17;7.60;99.90
52459;DHT22;38372;52.902;6.024;2023-04-06T15:56:46;7.50;99.90